Weather at Club Aernautic Catalunya

Public forecast

Using degrees Celsius for public forecast. Weather courtesy of forecast.io.

Closest aviation weather report (METAR) to Club Aernautic Catalunya

Closest report is Girona Airport, 11.2 nm (20.8 km) NE. Retrieved 2020/09/29 13:30 UTC (14 minutes ago):

LEGE 291330Z 15011KT 110V170 9999 FEW031 22/14 Q1017

Closest aviation forecast (TAF) to Club Aernautic Catalunya

Closest forecast is Girona Airport, 11.2 nm (20.8 km) NE. Retrieved 2020/09/29 12:27 UTC (1 hour ago):

TAF LEGE 291100Z 2912/3012 18012KT 9999 SCT020 TX25/2913Z TN11/3006Z BECMG 2918/2920 VRB03KT PROB30 TEMPO 3000/3006 3000 BR BKN014